Time;durP1;ratioP1;P1;durP2;ratioP2;P2;SDS_P1;SDS_P2;PMS_P1;PMS_P2;Temp;Humidity;BMP_temperature;BMP_pressure;BME280_temperature;BME280_humidity;BME280_pressure;Samples;Min_cycle;Max_cycle;Signal;HPM_P1;HPM_P2
2022/10/24 00:02:23;;;;;;;3.40;1.90;;;;;;;;;;5029689;28;20589;-54
2022/10/24 00:04:50;;;;;;;2.33;2.07;;;;;;;;;;5031902;28;20223;-49
2022/10/24 00:07:16;;;;;;;3.90;2.23;;;;;;;;;;5032046;28;20210;-54
2022/10/24 00:09:43;;;;;;;3.17;2.10;;;;;;;;;;5031442;28;20306;-49
2022/10/24 00:12:09;;;;;;;3.13;2.23;;;;;;;;;;5027128;28;20290;-53
2022/10/24 00:14:35;;;;;;;3.57;2.10;;;;;;;;;;5031746;28;20238;-52
2022/10/24 00:17:02;;;;;;;2.57;2.00;;;;;;;;;;5031559;28;20195;-53
2022/10/24 00:19:28;;;;;;;4.23;2.03;;;;;;;;;;5031020;28;20266;-55
2022/10/24 00:21:55;;;;;;;3.93;2.30;;;;;;;;;;5031512;28;21665;-50
2022/10/24 00:24:21;;;;;;;2.70;2.10;;;;;;;;;;5031655;28;20219;-53
2022/10/24 00:26:47;;;;;;;3.10;2.10;;;;;;;;;;5028582;28;20223;-51
2022/10/24 00:29:14;;;;;;;2.63;2.00;;;;;;;;;;5030927;28;20309;-50
2022/10/24 00:31:40;;;;;;;4.03;2.20;;;;;;;;;;5031343;28;20295;-50
2022/10/24 00:34:07;;;;;;;3.53;2.30;;;;;;;;;;5031382;28;20682;-52
2022/10/24 00:36:34;;;;;;;3.20;2.00;;;;;;;;;;5025525;28;20235;-54
2022/10/24 00:39:00;;;;;;;2.80;2.17;;;;;;;;;;5031121;28;20302;-50
2022/10/24 00:41:33;;;;;;;2.80;1.80;;;;;;;;;;5031332;28;20219;-52
2022/10/24 00:44:21;;;;;;;3.23;2.27;;;;;;;;;;5031067;28;20219;-53
2022/10/24 00:47:11;;;;;;;2.87;2.00;;;;;;;;;;5030769;28;20290;-53
2022/10/24 00:50:01;;;;;;;3.00;2.30;;;;;;;;;;5030940;28;20307;-50
2022/10/24 00:52:30;;;;;;;2.50;1.90;;;;;;;;;;5025816;28;20295;-49
2022/10/24 00:54:58;;;;;;;2.80;2.10;;;;;;;;;;5026273;28;20278;-49
2022/10/24 00:57:30;;;;;;;3.83;2.20;;;;;;;;;;5030092;28;20302;-49
2022/10/24 01:00:00;;;;;;;3.17;2.03;;;;;;;;;;5029549;28;20251;-50
2022/10/24 01:02:26;;;;;;;4.07;2.43;;;;;;;;;;5029312;28;20310;-53
2022/10/24 01:04:55;;;;;;;2.57;2.07;;;;;;;;;;5030677;28;20310;-54
2022/10/24 01:07:31;;;;;;;3.33;2.10;;;;;;;;;;5029868;28;20282;-49
2022/10/24 01:10:16;;;;;;;3.17;2.10;;;;;;;;;;5021473;28;20305;-50
2022/10/24 01:12:48;;;;;;;3.20;2.03;;;;;;;;;;5032103;28;20297;-52
2022/10/24 01:15:21;;;;;;;3.20;2.30;;;;;;;;;;5013053;28;20750;-49
2022/10/24 01:17:56;;;;;;;3.10;2.10;;;;;;;;;;5028564;28;20218;-50
2022/10/24 01:20:29;;;;;;;4.27;2.00;;;;;;;;;;5029287;28;20305;-49
2022/10/24 01:23:26;;;;;;;2.17;1.93;;;;;;;;;;5030509;28;20295;-49
2022/10/24 01:26:01;;;;;;;3.00;2.07;;;;;;;;;;5027717;28;20302;-50
2022/10/24 01:28:53;;;;;;;4.07;2.03;;;;;;;;;;5035079;28;20228;-52
2022/10/24 01:31:27;;;;;;;3.00;2.07;;;;;;;;;;5023053;28;20303;-53
2022/10/24 01:33:59;;;;;;;3.40;2.13;;;;;;;;;;5028874;28;20219;-51
2022/10/24 01:36:38;;;;;;;2.23;1.90;;;;;;;;;;5029149;28;20286;-53
2022/10/24 01:39:11;;;;;;;3.00;2.17;;;;;;;;;;5028893;28;20282;-50
2022/10/24 01:41:39;;;;;;;3.43;2.33;;;;;;;;;;5029046;28;20286;-53
2022/10/24 01:44:11;;;;;;;4.00;2.03;;;;;;;;;;5028838;28;20302;-50
2022/10/24 01:46:45;;;;;;;4.27;2.83;;;;;;;;;;5028607;28;20206;-54
2022/10/24 01:49:15;;;;;;;2.80;2.10;;;;;;;;;;5022085;28;20632;-53
2022/10/24 01:51:43;;;;;;;2.63;2.10;;;;;;;;;;5028837;28;20290;-50
2022/10/24 01:54:10;;;;;;;3.43;2.20;;;;;;;;;;5028255;28;20188;-50
2022/10/24 01:56:36;;;;;;;4.33;2.10;;;;;;;;;;5030081;28;20223;-50
2022/10/24 01:59:28;;;;;;;3.93;2.47;;;;;;;;;;5028679;28;20667;-50
2022/10/24 02:02:03;;;;;;;2.97;1.90;;;;;;;;;;5029633;28;20203;-49
2022/10/24 02:04:31;;;;;;;3.10;2.10;;;;;;;;;;5025036;28;20302;-50
2022/10/24 02:07:00;;;;;;;3.30;2.30;;;;;;;;;;5029770;28;20402;-50
2022/10/24 02:09:27;;;;;;;3.33;2.10;;;;;;;;;;5029507;28;20309;-51
2022/10/24 02:11:55;;;;;;;2.90;1.90;;;;;;;;;;5024009;28;20299;-50
2022/10/24 02:14:32;;;;;;;4.20;2.40;;;;;;;;;;5029917;28;20286;-50
2022/10/24 02:17:00;;;;;;;4.40;2.10;;;;;;;;;;5028449;28;20759;-52
2022/10/24 02:19:26;;;;;;;3.83;2.37;;;;;;;;;;5029484;28;20294;-52
2022/10/24 02:22:20;;;;;;;3.93;1.83;;;;;;;;;;5023897;28;20287;-52
2022/10/24 02:24:55;;;;;;;4.87;2.17;;;;;;;;;;5029595;28;20223;-49
2022/10/24 02:27:30;;;;;;;3.37;2.10;;;;;;;;;;5028490;28;20623;-52
2022/10/24 02:30:12;;;;;;;3.23;1.90;;;;;;;;;;5027735;28;20210;-50
2022/10/24 02:32:44;;;;;;;3.17;2.00;;;;;;;;;;5028753;28;20290;-50
2022/10/24 02:35:13;;;;;;;5.40;2.20;;;;;;;;;;5028473;28;20743;-55
2022/10/24 02:37:43;;;;;;;2.67;2.00;;;;;;;;;;5028580;28;20287;-52
2022/10/24 02:40:10;;;;;;;3.17;2.20;;;;;;;;;;5023693;28;20231;-52
2022/10/24 02:42:37;;;;;;;2.80;1.97;;;;;;;;;;5028599;28;20214;-50
2022/10/24 02:45:06;;;;;;;4.20;2.20;;;;;;;;;;5028581;28;20314;-49
2022/10/24 02:47:33;;;;;;;2.73;2.10;;;;;;;;;;5027479;28;20662;-49
2022/10/24 02:50:00;;;;;;;2.67;1.87;;;;;;;;;;5029201;28;20349;-53
2022/10/24 02:52:29;;;;;;;3.27;2.10;;;;;;;;;;5029647;28;20286;-50
2022/10/24 02:54:55;;;;;;;2.83;2.00;;;;;;;;;;5026026;28;20292;-49
2022/10/24 02:57:22;;;;;;;3.20;1.97;;;;;;;;;;5029383;28;20282;-52
2022/10/24 02:59:48;;;;;;;3.03;1.90;;;;;;;;;;5029240;28;20247;-51
2022/10/24 03:02:15;;;;;;;2.97;2.10;;;;;;;;;;5029714;28;20282;-49
2022/10/24 03:04:41;;;;;;;3.10;2.17;;;;;;;;;;5027497;28;20600;-49
2022/10/24 03:07:07;;;;;;;3.27;2.10;;;;;;;;;;5029422;28;20235;-49
2022/10/24 03:09:34;;;;;;;2.47;2.00;;;;;;;;;;5029761;28;20317;-50
2022/10/24 03:12:00;;;;;;;3.07;2.00;;;;;;;;;;5028221;28;20337;-51
2022/10/24 03:14:26;;;;;;;4.57;2.20;;;;;;;;;;5031890;28;20337;-50
2022/10/24 03:16:53;;;;;;;4.77;2.20;;;;;;;;;;5033175;28;20209;-53
2022/10/24 03:19:19;;;;;;;3.33;1.90;;;;;;;;;;5032682;28;20196;-50
2022/10/24 03:21:45;;;;;;;2.60;2.10;;;;;;;;;;5032004;28;20211;-49
2022/10/24 03:24:12;;;;;;;4.30;2.30;;;;;;;;;;5032630;28;20280;-49
2022/10/24 03:26:38;;;;;;;2.60;2.00;;;;;;;;;;5032935;28;20230;-50
2022/10/24 03:29:04;;;;;;;2.77;1.87;;;;;;;;;;5026045;28;20282;-52
2022/10/24 03:31:31;;;;;;;2.30;1.90;;;;;;;;;;5032769;28;20302;-50
2022/10/24 03:33:57;;;;;;;4.03;1.93;;;;;;;;;;5032647;28;20282;-49
2022/10/24 03:36:24;;;;;;;2.33;1.63;;;;;;;;;;5032682;28;20202;-50
2022/10/24 03:38:50;;;;;;;4.80;2.40;;;;;;;;;;5031846;28;20286;-51
2022/10/24 03:41:16;;;;;;;4.80;2.27;;;;;;;;;;5026482;28;20669;-50
2022/10/24 03:43:43;;;;;;;2.73;2.00;;;;;;;;;;5032612;28;20485;-49
2022/10/24 03:46:09;;;;;;;2.77;1.80;;;;;;;;;;5027628;28;20306;-52
2022/10/24 03:48:35;;;;;;;3.17;1.83;;;;;;;;;;5032452;28;20312;-51
2022/10/24 03:51:02;;;;;;;2.37;2.00;;;;;;;;;;5031940;28;20302;-50
2022/10/24 03:53:28;;;;;;;3.13;1.80;;;;;;;;;;5032254;28;20290;-49
2022/10/24 03:55:56;;;;;;;2.80;1.90;;;;;;;;;;5031389;28;20279;-49
2022/10/24 03:58:23;;;;;;;2.43;2.00;;;;;;;;;;5032457;28;20195;-51
2022/10/24 04:00:49;;;;;;;2.23;1.70;;;;;;;;;;5031809;28;20254;-53
2022/10/24 04:03:16;;;;;;;2.53;1.70;;;;;;;;;;5032219;28;20219;-53
2022/10/24 04:05:42;;;;;;;3.07;1.97;;;;;;;;;;5029230;28;20247;-53
2022/10/24 04:08:08;;;;;;;3.23;1.80;;;;;;;;;;5031887;28;20234;-52
2022/10/24 04:10:35;;;;;;;4.27;2.20;;;;;;;;;;5031542;28;20508;-50
2022/10/24 04:13:01;;;;;;;2.73;1.80;;;;;;;;;;5030824;28;20195;-49
2022/10/24 04:15:27;;;;;;;3.03;1.97;;;;;;;;;;5027924;28;20223;-52
2022/10/24 04:17:54;;;;;;;2.37;1.80;;;;;;;;;;5031860;28;20290;-55
2022/10/24 04:20:21;;;;;;;3.17;1.80;;;;;;;;;;5031463;28;20220;-54
2022/10/24 04:22:48;;;;;;;2.60;1.83;;;;;;;;;;5028902;28;20286;-52
2022/10/24 04:25:15;;;;;;;2.93;2.00;;;;;;;;;;5031932;28;20306;-54
2022/10/24 04:27:41;;;;;;;3.40;1.83;;;;;;;;;;5031943;28;20231;-53
2022/10/24 04:30:09;;;;;;;3.73;1.90;;;;;;;;;;5031765;28;20302;-53
2022/10/24 04:32:42;;;;;;;3.47;1.93;;;;;;;;;;5029555;28;20624;-51
2022/10/24 04:35:09;;;;;;;2.73;1.87;;;;;;;;;;5031498;28;20195;-52
2022/10/24 04:37:35;;;;;;;2.10;1.90;;;;;;;;;;5031668;28;20295;-51
2022/10/24 04:40:03;;;;;;;2.40;1.80;;;;;;;;;;5028648;28;20309;-53
2022/10/24 04:42:29;;;;;;;2.67;1.80;;;;;;;;;;5031422;28;20678;-55
2022/10/24 04:44:55;;;;;;;2.53;1.90;;;;;;;;;;5031297;28;20314;-54
2022/10/24 04:47:21;;;;;;;2.23;1.90;;;;;;;;;;5031503;28;20223;-52
2022/10/24 04:49:48;;;;;;;2.53;1.80;;;;;;;;;;5026592;28;20310;-53
2022/10/24 04:52:14;;;;;;;2.50;1.80;;;;;;;;;;5031363;28;20227;-50
2022/10/24 04:54:40;;;;;;;2.17;1.80;;;;;;;;;;5031331;28;20218;-51
2022/10/24 04:57:07;;;;;;;2.20;1.70;;;;;;;;;;5031075;28;20234;-50
2022/10/24 04:59:33;;;;;;;2.93;1.97;;;;;;;;;;5030235;28;20310;-52
2022/10/24 05:01:59;;;;;;;2.50;1.97;;;;;;;;;;5030920;28;20286;-53
2022/10/24 05:04:26;;;;;;;3.10;1.93;;;;;;;;;;5030812;28;20589;-52
2022/10/24 05:06:52;;;;;;;2.80;1.80;;;;;;;;;;5030105;28;20231;-53
2022/10/24 05:09:18;;;;;;;3.53;1.93;;;;;;;;;;5030351;28;20692;-53
2022/10/24 05:11:45;;;;;;;3.10;1.60;;;;;;;;;;5030733;28;20294;-52
2022/10/24 05:14:13;;;;;;;2.37;1.70;;;;;;;;;;5030591;28;20755;-51
2022/10/24 05:16:39;;;;;;;1.87;1.67;;;;;;;;;;5028504;28;20278;-50
2022/10/24 05:19:06;;;;;;;4.13;2.00;;;;;;;;;;5030204;28;20576;-50
2022/10/24 05:21:32;;;;;;;3.20;1.60;;;;;;;;;;5030749;28;20268;-51
2022/10/24 05:23:59;;;;;;;2.47;2.07;;;;;;;;;;5030414;28;20650;-50
2022/10/24 05:26:25;;;;;;;2.40;1.77;;;;;;;;;;5029883;28;20215;-51
2022/10/24 05:28:51;;;;;;;1.93;1.70;;;;;;;;;;5030376;28;20650;-54
2022/10/24 05:31:18;;;;;;;2.77;1.70;;;;;;;;;;5029988;28;20242;-53
2022/10/24 05:33:44;;;;;;;2.33;1.80;;;;;;;;;;5030270;28;20676;-50
2022/10/24 05:36:11;;;;;;;2.77;1.70;;;;;;;;;;5027150;28;20273;-53
2022/10/24 05:38:37;;;;;;;3.03;1.80;;;;;;;;;;5030362;28;20286;-53
2022/10/24 05:41:03;;;;;;;3.87;1.83;;;;;;;;;;5029945;28;20219;-50
2022/10/24 05:43:30;;;;;;;2.53;1.70;;;;;;;;;;5029606;28;20710;-50
2022/10/24 05:45:56;;;;;;;3.47;1.83;;;;;;;;;;5029477;28;20229;-52
2022/10/24 05:48:22;;;;;;;2.37;1.70;;;;;;;;;;5030338;28;20223;-53
2022/10/24 05:50:49;;;;;;;2.80;1.60;;;;;;;;;;5029999;28;20302;-53
2022/10/24 05:53:15;;;;;;;2.63;1.70;;;;;;;;;;5024861;28;20649;-54
2022/10/24 05:55:41;;;;;;;2.00;1.60;;;;;;;;;;5025125;28;20292;-51
2022/10/24 05:58:08;;;;;;;3.50;1.60;;;;;;;;;;5030045;28;20199;-50
2022/10/24 06:00:34;;;;;;;2.83;1.90;;;;;;;;;;5027239;28;20233;-52
2022/10/24 06:03:00;;;;;;;3.23;1.93;;;;;;;;;;5027169;28;20199;-49
2022/10/24 06:05:27;;;;;;;2.13;1.63;;;;;;;;;;5030204;28;20306;-49
2022/10/24 06:07:53;;;;;;;2.40;1.90;;;;;;;;;;5030140;28;20207;-49
2022/10/24 06:10:19;;;;;;;3.63;1.93;;;;;;;;;;5027925;28;20227;-52
2022/10/24 06:12:46;;;;;;;2.90;1.87;;;;;;;;;;5028057;28;20314;-55
2022/10/24 06:15:13;;;;;;;3.23;1.90;;;;;;;;;;5030218;28;20227;-53
2022/10/24 06:17:39;;;;;;;3.37;1.93;;;;;;;;;;5030089;28;20286;-50
2022/10/24 06:20:06;;;;;;;3.80;2.03;;;;;;;;;;5029185;28;20219;-47
2022/10/24 06:22:32;;;;;;;2.20;1.67;;;;;;;;;;5030391;28;20278;-53
2022/10/24 06:24:59;;;;;;;3.53;2.00;;;;;;;;;;5029803;28;20238;-53
2022/10/24 06:27:25;;;;;;;2.50;1.77;;;;;;;;;;5021810;28;20195;-52
2022/10/24 06:29:51;;;;;;;2.90;1.60;;;;;;;;;;5029326;28;20222;-49
2022/10/24 06:32:18;;;;;;;4.10;2.20;;;;;;;;;;5029865;28;20283;-50
2022/10/24 06:34:44;;;;;;;2.50;1.77;;;;;;;;;;5029866;28;20282;-50
2022/10/24 06:37:10;;;;;;;2.53;1.80;;;;;;;;;;5028929;28;20246;-51
2022/10/24 06:39:36;;;;;;;3.47;1.80;;;;;;;;;;5029124;28;20301;-53
2022/10/24 06:42:03;;;;;;;2.13;1.70;;;;;;;;;;5029519;28;20195;-54
2022/10/24 06:44:29;;;;;;;4.10;1.80;;;;;;;;;;5030219;28;20302;-52
2022/10/24 06:46:56;;;;;;;3.03;1.60;;;;;;;;;;5029928;28;20313;-52
2022/10/24 06:49:22;;;;;;;2.23;1.63;;;;;;;;;;5033107;28;20621;-51
2022/10/24 06:51:48;;;;;;;2.20;1.77;;;;;;;;;;5033595;28;20287;-50
2022/10/24 06:54:15;;;;;;;2.17;1.40;;;;;;;;;;5030482;28;20246;-50
2022/10/24 06:56:42;;;;;;;2.57;1.93;;;;;;;;;;5033221;28;20196;-51
2022/10/24 06:59:13;;;;;;;2.73;1.70;;;;;;;;;;5033206;28;20275;-51
2022/10/24 07:01:40;;;;;;;2.90;1.97;;;;;;;;;;5032259;28;20533;-49
2022/10/24 07:04:07;;;;;;;2.73;2.10;;;;;;;;;;5029832;28;20200;-51
2022/10/24 07:06:33;;;;;;;3.03;1.77;;;;;;;;;;5033224;28;20310;-49
2022/10/24 07:09:01;;;;;;;3.67;2.03;;;;;;;;;;5032820;28;20282;-50
2022/10/24 07:11:27;;;;;;;2.40;1.80;;;;;;;;;;5032749;28;20263;-51
2022/10/24 07:13:54;;;;;;;2.27;1.80;;;;;;;;;;5028968;28;20286;-52
2022/10/24 07:16:27;;;;;;;3.33;1.93;;;;;;;;;;5033335;28;20203;-54
2022/10/24 07:18:53;;;;;;;2.43;1.67;;;;;;;;;;5032911;28;20286;-52
2022/10/24 07:21:22;;;;;;;2.20;1.70;;;;;;;;;;5032686;28;20297;-51
2022/10/24 07:23:50;;;;;;;3.30;1.77;;;;;;;;;;5030912;28;20643;-49
2022/10/24 07:26:18;;;;;;;2.43;1.80;;;;;;;;;;5032954;28;20247;-51
2022/10/24 07:28:45;;;;;;;2.90;1.70;;;;;;;;;;5033038;28;20291;-53
2022/10/24 07:31:15;;;;;;;2.83;1.60;;;;;;;;;;5029338;28;20235;-53
2022/10/24 07:33:41;;;;;;;3.47;1.83;;;;;;;;;;5032790;28;20282;-52
2022/10/24 07:36:08;;;;;;;3.27;1.90;;;;;;;;;;5032657;28;20303;-53
2022/10/24 07:38:36;;;;;;;2.80;1.93;;;;;;;;;;5029908;28;20278;-52
2022/10/24 07:41:04;;;;;;;3.43;1.50;;;;;;;;;;5028650;28;20310;-54
2022/10/24 07:43:30;;;;;;;2.57;1.60;;;;;;;;;;5028473;28;20757;-54
2022/10/24 07:45:56;;;;;;;2.30;1.77;;;;;;;;;;5031109;28;20795;-54
2022/10/24 07:48:23;;;;;;;2.63;1.50;;;;;;;;;;5030858;28;20191;-53
2022/10/24 07:50:49;;;;;;;4.97;1.80;;;;;;;;;;5031835;28;20229;-51
2022/10/24 07:53:16;;;;;;;2.30;1.90;;;;;;;;;;5032142;28;20227;-49
2022/10/24 07:55:43;;;;;;;2.17;1.67;;;;;;;;;;5031365;28;20199;-52
2022/10/24 07:58:10;;;;;;;4.73;1.70;;;;;;;;;;5031624;28;20291;-55
2022/10/24 08:00:36;;;;;;;2.00;1.70;;;;;;;;;;5031964;28;20306;-51
2022/10/24 08:03:10;;;;;;;2.30;1.50;;;;;;;;;;5032335;28;20282;-51
2022/10/24 08:05:41;;;;;;;4.87;2.13;;;;;;;;;;5029440;28;20298;-50
2022/10/24 08:08:08;;;;;;;2.23;1.50;;;;;;;;;;5032194;28;20617;-54
2022/10/24 08:10:54;;;;;;;3.40;1.97;;;;;;;;;;5031653;28;20598;-51
2022/10/24 08:13:21;;;;;;;2.33;1.60;;;;;;;;;;5032155;28;20206;-50
2022/10/24 08:15:47;;;;;;;1.80;1.53;;;;;;;;;;5029143;28;20215;-51
2022/10/24 08:18:13;;;;;;;2.43;1.60;;;;;;;;;;5032252;28;20630;-52
2022/10/24 08:20:39;;;;;;;2.03;1.57;;;;;;;;;;5030397;28;20306;-52
2022/10/24 08:23:06;;;;;;;2.23;1.67;;;;;;;;;;5027577;28;20287;-53
2022/10/24 08:25:33;;;;;;;3.13;2.13;;;;;;;;;;5028062;28;20286;-53
2022/10/24 08:27:59;;;;;;;2.97;1.90;;;;;;;;;;5031735;28;20227;-51
2022/10/24 08:30:29;;;;;;;2.97;1.80;;;;;;;;;;5031102;28;20713;-52
2022/10/24 08:32:55;;;;;;;2.70;1.80;;;;;;;;;;5029505;28;20294;-53
2022/10/24 08:35:22;;;;;;;2.37;2.17;;;;;;;;;;5031647;28;20227;-51
2022/10/24 08:37:48;;;;;;;2.23;1.57;;;;;;;;;;5031469;28;20463;-50
2022/10/24 08:40:17;;;;;;;1.73;1.47;;;;;;;;;;5026898;28;20671;-53
2022/10/24 08:42:44;;;;;;;2.27;1.67;;;;;;;;;;5031514;28;20286;-51
2022/10/24 08:45:33;;;;;;;3.77;2.00;;;;;;;;;;5031186;28;20728;-50
2022/10/24 08:48:03;;;;;;;2.10;1.50;;;;;;;;;;5030245;28;20224;-51
2022/10/24 08:50:32;;;;;;;3.47;1.90;;;;;;;;;;5027376;28;20215;-50
2022/10/24 08:53:10;;;;;;;2.90;1.80;;;;;;;;;;5031438;28;20282;-49
2022/10/24 08:55:42;;;;;;;2.03;1.60;;;;;;;;;;5027926;28;20287;-50
2022/10/24 08:58:17;;;;;;;1.87;1.53;;;;;;;;;;5029670;28;20196;-54
2022/10/24 09:00:46;;;;;;;3.13;2.00;;;;;;;;;;5029527;28;20336;-55
2022/10/24 09:03:17;;;;;;;2.40;1.60;;;;;;;;;;5031450;28;20279;-50
2022/10/24 09:06:16;;;;;;;3.73;1.87;;;;;;;;;;5027418;28;20224;-50
2022/10/24 09:08:58;;;;;;;2.40;1.80;;;;;;;;;;5028233;28;20302;-48
2022/10/24 09:11:43;;;;;;;2.37;1.60;;;;;;;;;;5030345;28;20663;-52
2022/10/24 09:14:14;;;;;;;2.17;1.88;;;;;;;;;;5029457;28;20231;-54
2022/10/24 09:16:42;;;;;;;2.97;1.90;;;;;;;;;;5024060;28;20246;-53
2022/10/24 09:19:14;;;;;;;2.35;1.70;;;;;;;;;;5030437;28;20223;-53
2022/10/24 09:21:41;;;;;;;2.58;1.42;;;;;;;;;;5026598;28;20275;-51
2022/10/24 09:24:23;;;;;;;3.22;1.83;;;;;;;;;;5029242;28;20611;-53
2022/10/24 09:26:49;;;;;;;2.90;1.85;;;;;;;;;;5028802;28;20298;-52
2022/10/24 09:29:16;;;;;;;2.38;1.60;;;;;;;;;;5028998;28;20234;-52
2022/10/24 09:31:42;;;;;;;2.47;1.60;;;;;;;;;;5030727;28;20234;-51
2022/10/24 09:34:11;;;;;;;4.32;1.73;;;;;;;;;;5028291;28;20234;-51
2022/10/24 09:36:38;;;;;;;2.03;1.70;;;;;;;;;;5030188;28;20747;-49
2022/10/24 09:39:26;;;;;;;2.95;1.80;;;;;;;;;;5030014;28;20195;-50
2022/10/24 09:41:53;;;;;;;2.10;1.40;;;;;;;;;;5024363;28;20223;-50
2022/10/24 09:44:29;;;;;;;3.47;1.67;;;;;;;;;;5028974;28;20275;-53
2022/10/24 09:46:56;;;;;;;3.65;1.90;;;;;;;;;;5030262;28;20265;-53
2022/10/24 09:49:30;;;;;;;2.17;1.80;;;;;;;;;;5009377;28;20211;-53
2022/10/24 09:52:19;;;;;;;2.58;1.60;;;;;;;;;;5009114;28;20279;-52
2022/10/24 09:54:46;;;;;;;2.95;1.60;;;;;;;;;;5008244;28;20736;-54
2022/10/24 09:57:12;;;;;;;3.28;1.90;;;;;;;;;;5006153;28;20579;-53
2022/10/24 09:59:48;;;;;;;2.67;1.65;;;;;;;;;;5010185;28;20274;-56
2022/10/24 10:02:28;;;;;;;3.28;1.70;;;;;;;;;;5010469;28;20288;-51
2022/10/24 10:05:01;;;;;;;1.88;1.42;;;;;;;;;;5010488;28;20473;-52
2022/10/24 10:07:31;;;;;;;2.45;1.80;;;;;;;;;;5007209;28;20223;-53
2022/10/24 10:10:00;;;;;;;2.00;1.55;;;;;;;;;;5010324;28;20307;-49
2022/10/24 10:12:38;;;;;;;2.60;1.70;;;;;;;;;;5008742;28;20292;-53
2022/10/24 10:15:23;;;;;;;2.28;1.60;;;;;;;;;;5009997;28;20616;-53
2022/10/24 10:17:52;;;;;;;2.70;1.80;;;;;;;;;;5008702;28;20704;-56
2022/10/24 10:20:31;;;;;;;2.67;1.70;;;;;;;;;;5007565;28;20306;-56
2022/10/24 10:23:27;;;;;;;2.60;1.80;;;;;;;;;;5008705;28;20234;-56
2022/10/24 10:26:17;;;;;;;5.22;1.70;;;;;;;;;;5009320;28;20278;-54
2022/10/24 10:28:54;;;;;;;3.30;1.90;;;;;;;;;;5007816;28;20287;-52
2022/10/24 10:31:42;;;;;;;1.77;1.60;;;;;;;;;;5008485;28;20484;-53
2022/10/24 10:34:28;;;;;;;3.03;1.92;;;;;;;;;;5006984;28;20243;-56
2022/10/24 10:37:17;;;;;;;2.08;1.63;;;;;;;;;;5007935;28;20315;-52
2022/10/24 10:39:53;;;;;;;2.75;1.70;;;;;;;;;;5005951;28;20301;-53
2022/10/24 10:42:33;;;;;;;2.38;1.77;;;;;;;;;;5005724;28;20286;-54
2022/10/24 10:45:18;;;;;;;3.10;1.95;;;;;;;;;;5009886;28;20281;-53
2022/10/24 10:47:50;;;;;;;4.50;1.73;;;;;;;;;;5006958;28;20303;-54
2022/10/24 10:51:02;;;;;;;1.90;1.60;;;;;;;;;;5006586;28;20307;-54
2022/10/24 10:53:41;;;;;;;2.22;1.60;;;;;;;;;;5009720;28;20599;-53
2022/10/24 10:56:16;;;;;;;4.25;1.90;;;;;;;;;;5008634;28;20302;-53
2022/10/24 10:59:20;;;;;;;2.75;1.80;;;;;;;;;;5005559;28;20637;-54
2022/10/24 11:01:56;;;;;;;4.30;2.25;;;;;;;;;;5008573;28;20288;-56
2022/10/24 11:04:36;;;;;;;2.00;1.63;;;;;;;;;;5010107;28;20201;-54
2022/10/24 11:07:28;;;;;;;3.10;1.90;;;;;;;;;;5009529;28;20791;-52
2022/10/24 11:10:02;;;;;;;2.13;1.55;;;;;;;;;;5004544;28;20303;-53
2022/10/24 11:12:35;;;;;;;2.55;1.73;;;;;;;;;;5008287;28;20307;-54
2022/10/24 11:15:07;;;;;;;3.58;1.70;;;;;;;;;;5009613;28;20211;-55
2022/10/24 11:17:41;;;;;;;2.85;1.60;;;;;;;;;;5007993;28;20193;-51
2022/10/24 11:20:09;;;;;;;3.78;1.83;;;;;;;;;;5003483;28;20711;-54
2022/10/24 11:22:40;;;;;;;2.83;1.58;;;;;;;;;;5009573;28;20295;-54
2022/10/24 11:25:17;;;;;;;2.58;1.75;;;;;;;;;;5008609;28;20283;-54
2022/10/24 11:27:50;;;;;;;2.45;1.58;;;;;;;;;;5006684;28;20245;-55
2022/10/24 11:30:18;;;;;;;2.90;1.60;;;;;;;;;;5009698;28;20310;-54
2022/10/24 11:33:00;;;;;;;2.97;1.65;;;;;;;;;;5026142;28;20283;-54
2022/10/24 11:35:31;;;;;;;2.42;1.70;;;;;;;;;;5011017;28;20287;-54
2022/10/24 11:38:02;;;;;;;2.97;1.80;;;;;;;;;;5013033;28;20192;-56
2022/10/24 11:40:30;;;;;;;2.28;1.40;;;;;;;;;;5011199;28;20311;-55
2022/10/24 11:43:20;;;;;;;1.55;1.45;;;;;;;;;;5013453;28;20200;-53
2022/10/24 11:45:52;;;;;;;2.53;1.85;;;;;;;;;;5011944;28;20196;-53
2022/10/24 11:48:33;;;;;;;4.13;1.80;;;;;;;;;;5011560;28;20306;-56
2022/10/24 11:51:07;;;;;;;3.03;1.83;;;;;;;;;;5015923;28;20274;-53
2022/10/24 11:53:33;;;;;;;2.30;1.70;;;;;;;;;;5009227;28;20286;-51
2022/10/24 11:56:22;;;;;;;2.55;1.75;;;;;;;;;;5012665;28;20331;-51
2022/10/24 11:59:01;;;;;;;3.03;1.90;;;;;;;;;;5010060;28;20211;-50
2022/10/24 12:01:30;;;;;;;2.55;1.63;;;;;;;;;;5010607;28;20326;-54
2022/10/24 12:04:10;;;;;;;3.50;1.75;;;;;;;;;;5012320;28;20680;-53
2022/10/24 12:07:06;;;;;;;3.78;1.75;;;;;;;;;;5011037;28;20665;-53
2022/10/24 12:10:15;;;;;;;3.42;1.90;;;;;;;;;;5004167;28;20308;-53
2022/10/24 12:13:10;;;;;;;2.33;1.60;;;;;;;;;;5012049;28;20295;-53
2022/10/24 12:15:54;;;;;;;2.53;1.65;;;;;;;;;;5012116;28;20255;-53
2022/10/24 12:18:31;;;;;;;3.05;1.73;;;;;;;;;;5009879;28;20576;-53
2022/10/24 12:21:04;;;;;;;3.67;1.77;;;;;;;;;;5015092;28;20307;-52
2022/10/24 12:23:30;;;;;;;2.67;1.83;;;;;;;;;;5013962;28;20235;-56
2022/10/24 12:26:02;;;;;;;2.28;1.45;;;;;;;;;;5012153;28;20200;-53
2022/10/24 12:28:28;;;;;;;2.15;1.40;;;;;;;;;;5011142;28;20251;-52
2022/10/24 12:31:08;;;;;;;2.40;1.55;;;;;;;;;;5014702;28;20303;-52
2022/10/24 12:33:34;;;;;;;2.22;1.50;;;;;;;;;;5012121;28;20295;-48
2022/10/24 12:36:01;;;;;;;2.15;1.60;;;;;;;;;;5010491;28;20287;-51
2022/10/24 12:38:27;;;;;;;5.10;1.58;;;;;;;;;;5011606;28;20294;-54
2022/10/24 12:41:04;;;;;;;2.28;1.48;;;;;;;;;;5011540;28;20244;-54
2022/10/24 12:43:43;;;;;;;5.18;1.60;;;;;;;;;;5009966;28;20639;-50
2022/10/24 12:46:16;;;;;;;4.38;1.58;;;;;;;;;;5006844;28;20285;-52
2022/10/24 12:48:56;;;;;;;2.42;1.55;;;;;;;;;;5009579;28;20212;-52
2022/10/24 12:51:37;;;;;;;1.85;1.40;;;;;;;;;;5011199;28;20311;-50
2022/10/24 12:54:15;;;;;;;2.22;1.50;;;;;;;;;;5017514;28;20220;-54
2022/10/24 12:56:48;;;;;;;2.72;1.90;;;;;;;;;;5010766;28;20304;-56
2022/10/24 12:59:19;;;;;;;1.80;1.50;;;;;;;;;;5011032;28;20231;-53
2022/10/24 13:01:47;;;;;;;3.40;1.50;;;;;;;;;;5009054;28;20287;-51
2022/10/24 13:04:29;;;;;;;4.00;1.88;;;;;;;;;;5010375;28;20192;-54
2022/10/24 13:07:08;;;;;;;4.03;1.88;;;;;;;;;;5010634;28;20219;-51
2022/10/24 13:09:59;;;;;;;2.20;1.50;;;;;;;;;;5010924;28;20254;-53
2022/10/24 13:13:02;;;;;;;1.55;1.38;;;;;;;;;;5008690;28;20657;-53
2022/10/24 13:15:47;;;;;;;2.53;1.42;;;;;;;;;;5011058;28;20199;-55
2022/10/24 13:18:35;;;;;;;3.78;1.73;;;;;;;;;;5011173;28;20280;-53
2022/10/24 13:21:27;;;;;;;3.28;1.65;;;;;;;;;;5004577;28;20664;-54
2022/10/24 13:24:10;;;;;;;2.03;1.70;;;;;;;;;;5009311;28;20522;-54
2022/10/24 13:26:43;;;;;;;2.72;1.40;;;;;;;;;;5009801;28;20826;-52
2022/10/24 13:29:24;;;;;;;3.13;1.60;;;;;;;;;;5006224;28;20752;-56
2022/10/24 13:32:14;;;;;;;2.03;1.50;;;;;;;;;;5009758;28;20723;-53
2022/10/24 13:34:49;;;;;;;2.33;1.50;;;;;;;;;;5006778;28;20196;-56
2022/10/24 13:37:20;;;;;;;2.08;1.38;;;;;;;;;;5006521;28;20192;-51
2022/10/24 13:39:50;;;;;;;3.63;1.63;;;;;;;;;;5010169;28;20600;-54
2022/10/24 13:42:27;;;;;;;2.38;1.50;;;;;;;;;;5009629;28;20643;-55
2022/10/24 13:45:20;;;;;;;2.22;1.60;;;;;;;;;;5009726;28;20278;-53
2022/10/24 13:47:58;;;;;;;2.45;1.50;;;;;;;;;;5010949;28;20307;-53
2022/10/24 13:50:33;;;;;;;2.28;1.45;;;;;;;;;;5009534;28;20220;-55
2022/10/24 13:53:10;;;;;;;2.00;1.50;;;;;;;;;;5010895;28;20282;-52
2022/10/24 13:55:40;;;;;;;2.72;1.83;;;;;;;;;;5010131;28;20731;-56
2022/10/24 13:58:10;;;;;;;2.15;1.58;;;;;;;;;;5009637;28;20283;-53
2022/10/24 14:01:00;;;;;;;1.83;1.40;;;;;;;;;;5010047;28;20248;-53
2022/10/24 14:03:29;;;;;;;3.17;1.63;;;;;;;;;;5003727;28;20204;-55
2022/10/24 14:05:58;;;;;;;2.03;1.35;;;;;;;;;;5009022;28;20290;-53
2022/10/24 14:08:32;;;;;;;2.50;1.50;;;;;;;;;;5009614;28;20306;-56
2022/10/24 14:11:01;;;;;;;4.47;1.60;;;;;;;;;;5009787;28;20311;-55
2022/10/24 14:13:28;;;;;;;3.90;1.70;;;;;;;;;;5008717;28;20291;-48
2022/10/24 14:16:01;;;;;;;1.73;1.35;;;;;;;;;;5010619;28;20246;-54
2022/10/24 14:18:27;;;;;;;1.92;1.40;;;;;;;;;;5008992;28;20287;-53
2022/10/24 14:21:04;;;;;;;2.20;1.63;;;;;;;;;;5008750;28;20726;-51
2022/10/24 14:23:34;;;;;;;2.67;1.50;;;;;;;;;;5007292;28;20287;-52
2022/10/24 14:26:05;;;;;;;2.90;1.52;;;;;;;;;;5010338;28;20704;-53
2022/10/24 14:28:35;;;;;;;1.85;1.30;;;;;;;;;;5008574;28;20767;-50
2022/10/24 14:31:05;;;;;;;1.92;1.48;;;;;;;;;;5007995;28;20688;-51
2022/10/24 14:33:44;;;;;;;2.97;1.40;;;;;;;;;;5009998;28;20751;-50
2022/10/24 14:36:11;;;;;;;4.25;1.40;;;;;;;;;;5010182;28;20710;-49
2022/10/24 14:38:37;;;;;;;2.78;1.50;;;;;;;;;;5009951;28;20230;-50
2022/10/24 14:41:08;;;;;;;2.53;1.45;;;;;;;;;;5006556;28;20222;-52
2022/10/24 14:43:39;;;;;;;1.90;1.40;;;;;;;;;;5008572;28;20355;-49
2022/10/24 14:46:12;;;;;;;2.72;1.58;;;;;;;;;;5008665;28;20651;-52
2022/10/24 14:48:41;;;;;;;1.85;1.35;;;;;;;;;;5007318;28;20245;-50
2022/10/24 14:51:27;;;;;;;1.60;1.30;;;;;;;;;;5008272;28;20711;-52
2022/10/24 14:53:55;;;;;;;2.67;1.58;;;;;;;;;;5009607;28;20450;-51
2022/10/24 14:56:30;;;;;;;1.73;1.27;;;;;;;;;;5008754;28;20228;-52
2022/10/24 14:58:58;;;;;;;2.13;1.40;;;;;;;;;;5001572;28;20278;-50
2022/10/24 15:01:25;;;;;;;3.55;1.30;;;;;;;;;;5008340;28;20299;-49
2022/10/24 15:04:02;;;;;;;2.75;1.70;;;;;;;;;;5009756;28;20279;-48
2022/10/24 15:06:37;;;;;;;2.28;1.35;;;;;;;;;;5007644;28;20287;-53
2022/10/24 15:09:24;;;;;;;2.08;1.42;;;;;;;;;;5013432;28;20215;-48
2022/10/24 15:12:01;;;;;;;1.55;1.30;;;;;;;;;;5013045;28;20208;-49